sensor_id;sensor_type;location;lat;lon;timestamp;pressure;altitude;pressure_sealevel;temperature;humidity
10342;BME280;5216;54.602;18.356;2024-02-26T00:01:04;100631.13;;;7.76;64.65
10342;BME280;5216;54.602;18.356;2024-02-26T00:03:31;100631.50;;;7.71;64.19
10342;BME280;5216;54.602;18.356;2024-02-26T00:06:02;100639.47;;;7.71;64.65
10342;BME280;5216;54.602;18.356;2024-02-26T00:08:29;100636.94;;;7.70;64.24
10342;BME280;5216;54.602;18.356;2024-02-26T00:10:56;100641.53;;;7.68;64.39
10342;BME280;5216;54.602;18.356;2024-02-26T00:13:23;100636.94;;;7.70;64.69
10342;BME280;5216;54.602;18.356;2024-02-26T00:15:49;100636.59;;;7.74;64.87
10342;BME280;5216;54.602;18.356;2024-02-26T00:18:16;100643.50;;;7.77;64.55
10342;BME280;5216;54.602;18.356;2024-02-26T00:20:43;100631.13;;;7.76;64.94
10342;BME280;5216;54.602;18.356;2024-02-26T00:23:10;100638.16;;;7.77;64.89
10342;BME280;5216;54.602;18.356;2024-02-26T00:25:36;100637.91;;;7.80;64.75
10342;BME280;5216;54.602;18.356;2024-02-26T00:28:04;100628.00;;;7.82;64.90
10342;BME280;5216;54.602;18.356;2024-02-26T00:30:32;100616.41;;;7.83;64.85
10342;BME280;5216;54.602;18.356;2024-02-26T00:32:59;100620.88;;;7.82;65.29
10342;BME280;5216;54.602;18.356;2024-02-26T00:35:26;100619.06;;;7.83;65.39
10342;BME280;5216;54.602;18.356;2024-02-26T00:37:52;100620.03;;;7.82;64.72
10342;BME280;5216;54.602;18.356;2024-02-26T00:40:19;100632.59;;;7.80;64.80
10342;BME280;5216;54.602;18.356;2024-02-26T00:42:46;100629.22;;;7.78;65.20
10342;BME280;5216;54.602;18.356;2024-02-26T00:45:14;100624.03;;;7.76;65.55
10342;BME280;5216;54.602;18.356;2024-02-26T00:47:43;100633.56;;;7.79;65.38
10342;BME280;5216;54.602;18.356;2024-02-26T00:50:11;100620.28;;;7.79;65.31
10342;BME280;5216;54.602;18.356;2024-02-26T00:52:38;100633.31;;;7.82;64.97
10342;BME280;5216;54.602;18.356;2024-02-26T00:55:06;100620.88;;;7.82;65.13
10342;BME280;5216;54.602;18.356;2024-02-26T00:57:33;100625.34;;;7.82;65.18
10342;BME280;5216;54.602;18.356;2024-02-26T00:59:59;100621.50;;;7.86;65.21
10342;BME280;5216;54.602;18.356;2024-02-26T01:02:27;100625.84;;;7.87;65.42
10342;BME280;5216;54.602;18.356;2024-02-26T01:04:54;100621.25;;;7.89;65.18
10342;BME280;5216;54.602;18.356;2024-02-26T01:07:21;100622.09;;;7.89;65.00
10342;BME280;5216;54.602;18.356;2024-02-26T01:09:48;100615.94;;;7.89;64.97
10342;BME280;5216;54.602;18.356;2024-02-26T01:12:14;100620.53;;;7.87;65.34
10342;BME280;5216;54.602;18.356;2024-02-26T01:14:42;100626.56;;;7.89;64.98
10342;BME280;5216;54.602;18.356;2024-02-26T01:17:09;100627.41;;;7.89;65.08
10342;BME280;5216;54.602;18.356;2024-02-26T01:19:35;100626.56;;;7.89;65.08
10342;BME280;5216;54.602;18.356;2024-02-26T01:22:02;100620.31;;;7.90;65.48
10342;BME280;5216;54.602;18.356;2024-02-26T01:24:29;100612.16;;;7.91;65.13
10342;BME280;5216;54.602;18.356;2024-02-26T01:26:56;100612.91;;;7.93;65.46
10342;BME280;5216;54.602;18.356;2024-02-26T01:29:22;100605.91;;;7.92;65.17
10342;BME280;5216;54.602;18.356;2024-02-26T01:31:49;100593.81;;;7.88;64.87
10342;BME280;5216;54.602;18.356;2024-02-26T01:34:16;100600.22;;;7.86;65.10
10342;BME280;5216;54.602;18.356;2024-02-26T01:36:45;100589.06;;;7.81;64.91
10342;BME280;5216;54.602;18.356;2024-02-26T01:39:11;100594.78;;;7.76;64.96
10342;BME280;5216;54.602;18.356;2024-02-26T01:41:39;100592.44;;;7.72;65.09
10342;BME280;5216;54.602;18.356;2024-02-26T01:44:07;100598.75;;;7.71;64.78
10342;BME280;5216;54.602;18.356;2024-02-26T01:46:34;100594.63;;;7.67;64.92
10342;BME280;5216;54.602;18.356;2024-02-26T01:49:02;100603.81;;;7.63;64.73
10342;BME280;5216;54.602;18.356;2024-02-26T01:51:30;100604.28;;;7.57;64.81
10342;BME280;5216;54.602;18.356;2024-02-26T01:53:59;100603.56;;;7.55;65.15
10342;BME280;5216;54.602;18.356;2024-02-26T01:56:28;100604.16;;;7.48;64.94
10342;BME280;5216;54.602;18.356;2024-02-26T01:58:58;100603.53;;;7.44;65.03
10342;BME280;5216;54.602;18.356;2024-02-26T02:01:25;100602.06;;;7.40;65.35
10342;BME280;5216;54.602;18.356;2024-02-26T02:03:54;100604.00;;;7.38;64.96
10342;BME280;5216;54.602;18.356;2024-02-26T02:06:22;100604.25;;;7.35;65.06
10342;BME280;5216;54.602;18.356;2024-02-26T02:08:49;100607.13;;;7.32;65.44
10342;BME280;5216;54.602;18.356;2024-02-26T02:11:17;100603.63;;;7.32;65.38
10342;BME280;5216;54.602;18.356;2024-02-26T02:13:43;100607.34;;;7.30;64.81
10342;BME280;5216;54.602;18.356;2024-02-26T02:16:10;100599.63;;;7.27;65.00
10342;BME280;5216;54.602;18.356;2024-02-26T02:18:37;100608.78;;;7.23;65.42
10342;BME280;5216;54.602;18.356;2024-02-26T02:21:04;100604.09;;;7.26;65.83
10342;BME280;5216;54.602;18.356;2024-02-26T02:23:31;100606.59;;;7.28;65.78
10342;BME280;5216;54.602;18.356;2024-02-26T02:25:58;100608.31;;;7.29;65.50
10342;BME280;5216;54.602;18.356;2024-02-26T02:28:26;100602.03;;;7.30;65.72
10342;BME280;5216;54.602;18.356;2024-02-26T02:30:54;100609.66;;;7.34;65.83
10342;BME280;5216;54.602;18.356;2024-02-26T02:33:21;100614.88;;;7.35;65.69
10342;BME280;5216;54.602;18.356;2024-02-26T02:35:49;100605.91;;;7.36;65.79
10342;BME280;5216;54.602;18.356;2024-02-26T02:38:18;100604.00;;;7.38;65.39
10342;BME280;5216;54.602;18.356;2024-02-26T02:40:45;100610.28;;;7.37;65.38
10342;BME280;5216;54.602;18.356;2024-02-26T02:43:12;100609.56;;;7.35;65.27
10342;BME280;5216;54.602;18.356;2024-02-26T02:45:38;100605.31;;;7.33;65.36
10342;BME280;5216;54.602;18.356;2024-02-26T02:48:05;100608.38;;;7.39;65.33
10342;BME280;5216;54.602;18.356;2024-02-26T02:50:32;100605.72;;;7.39;65.34
10342;BME280;5216;54.602;18.356;2024-02-26T02:52:59;100597.94;;;7.36;64.91
10342;BME280;5216;54.602;18.356;2024-02-26T02:55:26;100609.56;;;7.35;65.41
10342;BME280;5216;54.602;18.356;2024-02-26T02:57:53;100607.97;;;7.33;65.18
10342;BME280;5216;54.602;18.356;2024-02-26T03:00:20;100616.19;;;7.30;65.53
10342;BME280;5216;54.602;18.356;2024-02-26T03:02:49;100609.16;;;7.29;65.42
10342;BME280;5216;54.602;18.356;2024-02-26T03:05:16;100613.84;;;7.26;65.56
10342;BME280;5216;54.602;18.356;2024-02-26T03:07:43;100612.19;;;7.25;65.57
10342;BME280;5216;54.602;18.356;2024-02-26T03:10:10;100596.22;;;7.25;65.16
10342;BME280;5216;54.602;18.356;2024-02-26T03:12:36;100602.63;;;7.22;65.48
10342;BME280;5216;54.602;18.356;2024-02-26T03:15:03;100599.84;;;7.24;65.09
10342;BME280;5216;54.602;18.356;2024-02-26T03:17:31;100599.09;;;7.22;65.57
10342;BME280;5216;54.602;18.356;2024-02-26T03:19:58;100592.59;;;7.26;65.45
10342;BME280;5216;54.602;18.356;2024-02-26T03:22:24;100592.59;;;7.26;65.21
10342;BME280;5216;54.602;18.356;2024-02-26T03:24:51;100592.00;;;7.22;64.99
10342;BME280;5216;54.602;18.356;2024-02-26T03:27:18;100591.13;;;7.22;65.40
10342;BME280;5216;54.602;18.356;2024-02-26T03:29:45;100600.91;;;7.21;64.88
10342;BME280;5216;54.602;18.356;2024-02-26T03:32:11;100605.41;;;7.21;64.85
10342;BME280;5216;54.602;18.356;2024-02-26T03:34:38;100602.00;;;7.19;64.50
10342;BME280;5216;54.602;18.356;2024-02-26T03:37:08;100593.53;;;7.14;64.60
10342;BME280;5216;54.602;18.356;2024-02-26T03:39:37;100603.66;;;7.09;64.48
10342;BME280;5216;54.602;18.356;2024-02-26T03:42:04;100595.91;;;7.06;64.82
10342;BME280;5216;54.602;18.356;2024-02-26T03:44:30;100593.38;;;7.04;64.90
10342;BME280;5216;54.602;18.356;2024-02-26T03:46:57;100601.69;;;7.00;65.09
10342;BME280;5216;54.602;18.356;2024-02-26T03:49:24;100604.97;;;7.03;65.47
10342;BME280;5216;54.602;18.356;2024-02-26T03:51:51;100603.16;;;7.04;65.41
10342;BME280;5216;54.602;18.356;2024-02-26T03:54:17;100601.47;;;7.03;65.25
10342;BME280;5216;54.602;18.356;2024-02-26T03:56:44;100600.97;;;6.98;65.10
10342;BME280;5216;54.602;18.356;2024-02-26T03:59:11;100615.94;;;6.99;65.21
10342;BME280;5216;54.602;18.356;2024-02-26T04:01:37;100620.00;;;6.92;64.94
10342;BME280;5216;54.602;18.356;2024-02-26T04:04:05;100615.78;;;6.90;64.83
10342;BME280;5216;54.602;18.356;2024-02-26T04:06:31;100609.84;;;6.86;65.25
10342;BME280;5216;54.602;18.356;2024-02-26T04:08:58;100612.50;;;6.86;64.84
10342;BME280;5216;54.602;18.356;2024-02-26T04:11:25;100616.13;;;6.85;65.36
10342;BME280;5216;54.602;18.356;2024-02-26T04:13:52;100620.72;;;6.83;65.37
10342;BME280;5216;54.602;18.356;2024-02-26T04:16:19;100620.81;;;6.82;65.23
10342;BME280;5216;54.602;18.356;2024-02-26T04:18:45;100621.03;;;6.79;65.32
10342;BME280;5216;54.602;18.356;2024-02-26T04:21:12;100616.28;;;6.71;65.37
10342;BME280;5216;54.602;18.356;2024-02-26T04:23:39;100616.41;;;6.70;64.93
10342;BME280;5216;54.602;18.356;2024-02-26T04:26:06;100618.44;;;6.66;65.22
10342;BME280;5216;54.602;18.356;2024-02-26T04:28:33;100616.34;;;6.59;65.26
10342;BME280;5216;54.602;18.356;2024-02-26T04:30:59;100616.44;;;6.58;65.21
10342;BME280;5216;54.602;18.356;2024-02-26T04:33:26;100621.84;;;6.56;65.25
10342;BME280;5216;54.602;18.356;2024-02-26T04:35:53;100614.03;;;6.55;65.19
10342;BME280;5216;54.602;18.356;2024-02-26T04:38:20;100605.44;;;6.51;65.41
10342;BME280;5216;54.602;18.356;2024-02-26T04:40:46;100624.13;;;6.50;65.25
10342;BME280;5216;54.602;18.356;2024-02-26T04:43:13;100615.50;;;6.46;65.32
10342;BME280;5216;54.602;18.356;2024-02-26T04:45:40;100624.34;;;6.47;65.37
10342;BME280;5216;54.602;18.356;2024-02-26T04:48:07;100618.31;;;6.45;65.26
10342;BME280;5216;54.602;18.356;2024-02-26T04:50:34;100621.81;;;6.45;65.57
10342;BME280;5216;54.602;18.356;2024-02-26T04:53:01;100612.13;;;6.44;65.13
10342;BME280;5216;54.602;18.356;2024-02-26T04:55:27;100618.50;;;6.42;65.35
10342;BME280;5216;54.602;18.356;2024-02-26T04:57:54;100613.44;;;6.39;65.81
10342;BME280;5216;54.602;18.356;2024-02-26T05:00:21;100618.75;;;6.39;65.58
10342;BME280;5216;54.602;18.356;2024-02-26T05:02:48;100634.44;;;6.42;65.88
10342;BME280;5216;54.602;18.356;2024-02-26T05:05:15;100632.41;;;6.45;65.88
10342;BME280;5216;54.602;18.356;2024-02-26T05:07:42;100637.63;;;6.47;65.71
10342;BME280;5216;54.602;18.356;2024-02-26T05:10:10;100631.56;;;6.45;65.67
10342;BME280;5216;54.602;18.356;2024-02-26T05:12:37;100639.75;;;6.42;65.49
10342;BME280;5216;54.602;18.356;2024-02-26T05:15:04;100637.34;;;6.39;65.62
10342;BME280;5216;54.602;18.356;2024-02-26T05:17:32;100635.63;;;6.38;65.75
10342;BME280;5216;54.602;18.356;2024-02-26T05:19:58;100644.31;;;6.40;66.33
10342;BME280;5216;54.602;18.356;2024-02-26T05:22:25;100642.31;;;6.43;66.45
10342;BME280;5216;54.602;18.356;2024-02-26T05:24:52;100644.84;;;6.45;66.21
10342;BME280;5216;54.602;18.356;2024-02-26T05:27:19;100658.88;;;6.47;65.88
10342;BME280;5216;54.602;18.356;2024-02-26T05:29:46;100661.72;;;6.44;65.28
10342;BME280;5216;54.602;18.356;2024-02-26T05:32:12;100663.13;;;6.37;65.00
10342;BME280;5216;54.602;18.356;2024-02-26T05:34:39;100672.03;;;6.36;64.81
10342;BME280;5216;54.602;18.356;2024-02-26T05:37:07;100673.31;;;6.30;65.26
10342;BME280;5216;54.602;18.356;2024-02-26T05:39:34;100680.03;;;6.23;65.37
10342;BME280;5216;54.602;18.356;2024-02-26T05:42:01;100681.81;;;6.23;65.40
10342;BME280;5216;54.602;18.356;2024-02-26T05:44:28;100677.38;;;6.23;65.52
10342;BME280;5216;54.602;18.356;2024-02-26T05:46:55;100678.41;;;6.21;65.74
10342;BME280;5216;54.602;18.356;2024-02-26T05:49:22;100690.75;;;6.22;65.50
10342;BME280;5216;54.602;18.356;2024-02-26T05:51:49;100686.19;;;6.24;66.16
10342;BME280;5216;54.602;18.356;2024-02-26T05:54:16;100680.13;;;6.22;65.46
10342;BME280;5216;54.602;18.356;2024-02-26T05:56:43;100694.34;;;6.21;65.93
10342;BME280;5216;54.602;18.356;2024-02-26T05:59:09;100683.84;;;6.20;65.87
10342;BME280;5216;54.602;18.356;2024-02-26T06:01:36;100694.34;;;6.21;65.60
10342;BME280;5216;54.602;18.356;2024-02-26T06:04:03;100701.25;;;6.23;66.06
10342;BME280;5216;54.602;18.356;2024-02-26T06:06:30;100709.09;;;6.25;65.19
10342;BME280;5216;54.602;18.356;2024-02-26T06:08:57;100703.03;;;6.23;65.94
10342;BME280;5216;54.602;18.356;2024-02-26T06:11:24;100705.69;;;6.23;66.10
10342;BME280;5216;54.602;18.356;2024-02-26T06:13:50;100708.34;;;6.23;66.51
10342;BME280;5216;54.602;18.356;2024-02-26T06:16:17;100715.13;;;6.27;66.25
10342;BME280;5216;54.602;18.356;2024-02-26T06:18:44;100715.13;;;6.27;66.23
10342;BME280;5216;54.602;18.356;2024-02-26T06:21:11;100717.78;;;6.27;65.62
10342;BME280;5216;54.602;18.356;2024-02-26T06:23:38;100711.75;;;6.25;66.28
10342;BME280;5216;54.602;18.356;2024-02-26T06:26:06;100723.34;;;6.24;66.26
10342;BME280;5216;54.602;18.356;2024-02-26T06:28:32;100736.69;;;6.22;65.60
10342;BME280;5216;54.602;18.356;2024-02-26T06:31:00;100730.00;;;6.17;65.64
10342;BME280;5216;54.602;18.356;2024-02-26T06:33:27;100736.06;;;6.19;65.65
10342;BME280;5216;54.602;18.356;2024-02-26T06:35:54;100730.00;;;6.17;66.15
10342;BME280;5216;54.602;18.356;2024-02-26T06:38:20;100737.22;;;6.15;66.26
10342;BME280;5216;54.602;18.356;2024-02-26T06:40:47;100726.75;;;6.14;66.51
10342;BME280;5216;54.602;18.356;2024-02-26T06:43:14;100736.28;;;6.16;66.57
10342;BME280;5216;54.602;18.356;2024-02-26T06:45:41;100732.66;;;6.17;66.16
10342;BME280;5216;54.602;18.356;2024-02-26T06:48:07;100730.88;;;6.18;66.50
10342;BME280;5216;54.602;18.356;2024-02-26T06:50:34;100735.13;;;6.20;66.53
10342;BME280;5216;54.602;18.356;2024-02-26T06:53:01;100742.09;;;6.21;66.80
10342;BME280;5216;54.602;18.356;2024-02-26T06:55:28;100743.81;;;6.22;66.86
10342;BME280;5216;54.602;18.356;2024-02-26T06:57:55;100738.72;;;6.19;66.60
10342;BME280;5216;54.602;18.356;2024-02-26T07:00:21;100747.22;;;6.24;66.80
10342;BME280;5216;54.602;18.356;2024-02-26T07:02:48;100753.25;;;6.26;66.73
10342;BME280;5216;54.602;18.356;2024-02-26T07:05:15;100752.28;;;6.27;66.35
10342;BME280;5216;54.602;18.356;2024-02-26T07:07:42;100754.00;;;6.28;67.09
10342;BME280;5216;54.602;18.356;2024-02-26T07:10:09;100761.88;;;6.29;67.08
10342;BME280;5216;54.602;18.356;2024-02-26T07:12:36;100760.16;;;6.28;66.49
10342;BME280;5216;54.602;18.356;2024-02-26T07:15:03;100761.63;;;6.32;67.02
10342;BME280;5216;54.602;18.356;2024-02-26T07:17:30;100764.00;;;6.37;67.35
10342;BME280;5216;54.602;18.356;2024-02-26T07:19:57;100761.22;;;6.38;67.04
10342;BME280;5216;54.602;18.356;2024-02-26T07:22:23;100763.13;;;6.36;67.53
10342;BME280;5216;54.602;18.356;2024-02-26T07:24:51;100766.22;;;6.43;67.04
10342;BME280;5216;54.602;18.356;2024-02-26T07:27:18;100773.00;;;6.47;67.30
10342;BME280;5216;54.602;18.356;2024-02-26T07:29:45;100776.28;;;6.50;66.95
10342;BME280;5216;54.602;18.356;2024-02-26T07:32:13;100762.91;;;6.52;67.39
10342;BME280;5216;54.602;18.356;2024-02-26T07:34:40;100775.00;;;6.56;67.48
10342;BME280;5216;54.602;18.356;2024-02-26T07:37:08;100771.41;;;6.57;67.52
10342;BME280;5216;54.602;18.356;2024-02-26T07:39:35;100767.47;;;6.62;67.57
10342;BME280;5216;54.602;18.356;2024-02-26T07:42:03;100776.06;;;6.65;67.62
10342;BME280;5216;54.602;18.356;2024-02-26T07:44:30;100774.13;;;6.67;67.63
10342;BME280;5216;54.602;18.356;2024-02-26T07:46:57;100772.22;;;6.69;67.53
10342;BME280;5216;54.602;18.356;2024-02-26T07:49:24;100773.94;;;6.70;68.07
10342;BME280;5216;54.602;18.356;2024-02-26T07:51:51;100775.41;;;6.74;67.75
10342;BME280;5216;54.602;18.356;2024-02-26T07:54:18;100777.97;;;6.76;68.04
10342;BME280;5216;54.602;18.356;2024-02-26T07:56:46;100789.19;;;6.79;67.96
10342;BME280;5216;54.602;18.356;2024-02-26T07:59:13;100781.97;;;6.81;68.11
10342;BME280;5216;54.602;18.356;2024-02-26T08:01:40;100788.91;;;6.84;67.85
10342;BME280;5216;54.602;18.356;2024-02-26T08:04:08;100798.25;;;6.89;67.73
10342;BME280;5216;54.602;18.356;2024-02-26T08:06:35;100791.75;;;6.93;67.75
10342;BME280;5216;54.602;18.356;2024-02-26T08:09:04;100783.63;;;6.95;68.02
10342;BME280;5216;54.602;18.356;2024-02-26T08:11:31;100785.00;;;7.00;67.77
10342;BME280;5216;54.602;18.356;2024-02-26T08:13:58;100798.09;;;7.03;67.94
10342;BME280;5216;54.602;18.356;2024-02-26T08:16:25;100791.59;;;7.07;67.95
10342;BME280;5216;54.602;18.356;2024-02-26T08:18:53;100804.66;;;7.10;68.05
10342;BME280;5216;54.602;18.356;2024-02-26T08:21:20;100799.47;;;7.08;67.75
10342;BME280;5216;54.602;18.356;2024-02-26T08:23:47;100810.59;;;7.13;67.82
10342;BME280;5216;54.602;18.356;2024-02-26T08:26:13;100807.84;;;7.15;68.05
10342;BME280;5216;54.602;18.356;2024-02-26T08:28:40;100806.75;;;7.17;68.33
10342;BME280;5216;54.602;18.356;2024-02-26T08:31:07;100817.28;;;7.19;68.05
10342;BME280;5216;54.602;18.356;2024-02-26T08:33:34;100815.38;;;7.21;67.97
10342;BME280;5216;54.602;18.356;2024-02-26T08:36:05;100811.88;;;7.20;68.15
10342;BME280;5216;54.602;18.356;2024-02-26T08:38:33;100815.13;;;7.24;68.46
10342;BME280;5216;54.602;18.356;2024-02-26T08:41:01;100813.94;;;7.28;68.67
10342;BME280;5216;54.602;18.356;2024-02-26T08:43:29;100813.75;;;7.31;68.92
10342;BME280;5216;54.602;18.356;2024-02-26T08:45:57;100810.34;;;7.29;68.83
10342;BME280;5216;54.602;18.356;2024-02-26T08:48:24;100819.59;;;7.35;68.75
10342;BME280;5216;54.602;18.356;2024-02-26T08:50:51;100819.59;;;7.35;68.85
10342;BME280;5216;54.602;18.356;2024-02-26T08:53:18;100823.72;;;7.39;69.10
10342;BME280;5216;54.602;18.356;2024-02-26T08:55:57;100827.94;;;7.42;69.36
10342;BME280;5216;54.602;18.356;2024-02-26T08:58:23;100835.59;;;7.46;69.04
10342;BME280;5216;54.602;18.356;2024-02-26T09:00:50;100828.34;;;7.48;69.42
10342;BME280;5216;54.602;18.356;2024-02-26T09:03:17;100835.13;;;7.52;69.44
10342;BME280;5216;54.602;18.356;2024-02-26T09:05:44;100821.50;;;7.57;69.31
10342;BME280;5216;54.602;18.356;2024-02-26T09:08:11;100833.63;;;7.61;69.91
10342;BME280;5216;54.602;18.356;2024-02-26T09:10:38;100842.94;;;7.66;69.72
10342;BME280;5216;54.602;18.356;2024-02-26T09:13:05;100841.66;;;7.71;69.88
10342;BME280;5216;54.602;18.356;2024-02-26T09:15:32;100845.69;;;7.77;69.92
10342;BME280;5216;54.602;18.356;2024-02-26T09:17:59;100843.50;;;7.82;69.92
10342;BME280;5216;54.602;18.356;2024-02-26T09:20:26;100850.09;;;7.89;69.74
10342;BME280;5216;54.602;18.356;2024-02-26T09:22:53;100849.72;;;7.93;70.11
10342;BME280;5216;54.602;18.356;2024-02-26T09:25:20;100850.25;;;7.98;69.91
10342;BME280;5216;54.602;18.356;2024-02-26T09:27:47;100860.31;;;8.06;69.96
10342;BME280;5216;54.602;18.356;2024-02-26T09:30:14;100855.53;;;8.10;70.31
10342;BME280;5216;54.602;18.356;2024-02-26T09:32:40;100848.16;;;8.14;70.21
10342;BME280;5216;54.602;18.356;2024-02-26T09:35:08;100854.84;;;8.19;70.43
10342;BME280;5216;54.602;18.356;2024-02-26T09:37:36;100858.00;;;8.24;70.24
10342;BME280;5216;54.602;18.356;2024-02-26T09:40:04;100852.19;;;8.30;70.29
10342;BME280;5216;54.602;18.356;2024-02-26T09:42:34;100858.16;;;8.34;70.29
10342;BME280;5216;54.602;18.356;2024-02-26T09:45:05;100853.44;;;8.37;70.07
10342;BME280;5216;54.602;18.356;2024-02-26T09:47:36;100854.91;;;8.41;70.15
10342;BME280;5216;54.602;18.356;2024-02-26T09:50:03;100854.69;;;8.44;70.50
10342;BME280;5216;54.602;18.356;2024-02-26T09:52:33;100856.13;;;8.48;70.43
10342;BME280;5216;54.602;18.356;2024-02-26T09:55:00;100859.53;;;8.50;70.64
10342;BME280;5216;54.602;18.356;2024-02-26T09:57:27;100853.97;;;8.53;70.64
10342;BME280;5216;54.602;18.356;2024-02-26T09:59:59;100857.97;;;8.58;70.74
10342;BME280;5216;54.602;18.356;2024-02-26T10:02:28;100863.91;;;8.62;70.55
10342;BME280;5216;54.602;18.356;2024-02-26T10:04:55;100859.31;;;8.64;70.37
10342;BME280;5216;54.602;18.356;2024-02-26T10:07:24;100867.06;;;8.67;70.79
10342;BME280;5216;54.602;18.356;2024-02-26T10:09:51;100854.47;;;8.69;70.44
10342;BME280;5216;54.602;18.356;2024-02-26T10:12:18;100859.31;;;8.75;70.42
10342;BME280;5216;54.602;18.356;2024-02-26T10:14:46;100857.38;;;8.77;70.81
10342;BME280;5216;54.602;18.356;2024-02-26T10:17:13;100860.53;;;8.81;71.27
10342;BME280;5216;54.602;18.356;2024-02-26T10:19:39;100869.28;;;8.83;71.42
10342;BME280;5216;54.602;18.356;2024-02-26T10:22:06;100872.19;;;8.91;71.23
10342;BME280;5216;54.602;18.356;2024-02-26T10:24:33;100876.41;;;8.94;71.18
10342;BME280;5216;54.602;18.356;2024-02-26T10:27:02;100872.53;;;8.98;71.40
10342;BME280;5216;54.602;18.356;2024-02-26T10:29:29;100874.00;;;9.02;71.45
10342;BME280;5216;54.602;18.356;2024-02-26T10:31:56;100872.94;;;9.04;71.26
10342;BME280;5216;54.602;18.356;2024-02-26T10:34:23;100877.88;;;9.09;71.49
10342;BME280;5216;54.602;18.356;2024-02-26T10:36:50;100875.84;;;9.12;71.49
10342;BME280;5216;54.602;18.356;2024-02-26T10:39:20;100876.44;;;9.16;71.87
10342;BME280;5216;54.602;18.356;2024-02-26T10:41:48;100876.06;;;9.20;71.25
10342;BME280;5216;54.602;18.356;2024-02-26T10:44:15;100873.16;;;9.23;71.69
10342;BME280;5216;54.602;18.356;2024-02-26T10:46:46;100875.31;;;9.29;71.63
10342;BME280;5216;54.602;18.356;2024-02-26T10:49:15;100874.09;;;9.33;71.84
10342;BME280;5216;54.602;18.356;2024-02-26T10:51:52;100882.88;;;9.35;71.36
10342;BME280;5216;54.602;18.356;2024-02-26T10:54:21;100873.66;;;9.39;71.50
10342;BME280;5216;54.602;18.356;2024-02-26T10:56:50;100878.00;;;9.40;71.60
10342;BME280;5216;54.602;18.356;2024-02-26T10:59:18;100878.50;;;9.45;71.71
10342;BME280;5216;54.602;18.356;2024-02-26T11:01:48;100880.78;;;9.49;71.63
10342;BME280;5216;54.602;18.356;2024-02-26T11:04:16;100876.06;;;9.53;71.83
10342;BME280;5216;54.602;18.356;2024-02-26T11:06:45;100867.91;;;9.54;71.90
10342;BME280;5216;54.602;18.356;2024-02-26T11:09:14;100878.22;;;9.58;71.64
10342;BME280;5216;54.602;18.356;2024-02-26T11:11:42;100877.00;;;9.62;71.47
10342;BME280;5216;54.602;18.356;2024-02-26T11:14:09;100880.38;;;9.64;71.36
10342;BME280;5216;54.602;18.356;2024-02-26T11:16:39;100871.66;;;9.62;71.14
10342;BME280;5216;54.602;18.356;2024-02-26T11:19:10;100879.41;;;9.65;71.57
10342;BME280;5216;54.602;18.356;2024-02-26T11:21:39;100888.00;;;9.69;70.90
10342;BME280;5216;54.602;18.356;2024-02-26T11:24:11;100885.22;;;9.70;71.37
10342;BME280;5216;54.602;18.356;2024-02-26T11:26:43;100881.84;;;9.68;71.03
10342;BME280;5216;54.602;18.356;2024-02-26T11:29:17;100891.16;;;9.74;70.81
10342;BME280;5216;54.602;18.356;2024-02-26T11:31:46;100883.00;;;9.75;70.87
10342;BME280;5216;54.602;18.356;2024-02-26T11:34:14;100886.41;;;9.77;70.70
10342;BME280;5216;54.602;18.356;2024-02-26T11:36:41;100886.16;;;9.80;70.54
10342;BME280;5216;54.602;18.356;2024-02-26T11:39:11;100887.63;;;9.84;70.64
10342;BME280;5216;54.602;18.356;2024-02-26T11:41:39;100892.44;;;9.90;70.79
10342;BME280;5216;54.602;18.356;2024-02-26T11:44:06;100881.78;;;9.90;70.35
10342;BME280;5216;54.602;18.356;2024-02-26T11:46:39;100892.69;;;9.98;70.39
10342;BME280;5216;54.602;18.356;2024-02-26T11:49:30;100902.06;;;10.24;71.94
10342;BME280;5216;54.602;18.356;2024-02-26T11:51:58;100894.84;;;11.16;74.30
10342;BME280;5216;54.602;18.356;2024-02-26T11:54:49;100910.56;;;12.36;72.80
10342;BME280;5216;54.602;18.356;2024-02-26T11:57:30;100892.31;;;12.95;68.56
10342;BME280;5216;54.602;18.356;2024-02-26T12:05:11;100905.19;;;14.17;61.79
10342;BME280;5216;54.602;18.356;2024-02-26T12:07:46;100909.91;;;14.50;60.55
10342;BME280;5216;54.602;18.356;2024-02-26T12:10:27;100910.47;;;14.78;60.31
10342;BME280;5216;54.602;18.356;2024-02-26T12:15:38;100920.56;;;15.44;57.15
10342;BME280;5216;54.602;18.356;2024-02-26T12:18:06;100913.25;;;15.62;56.15
10342;BME280;5216;54.602;18.356;2024-02-26T12:20:37;100912.28;;;15.71;55.47
10342;BME280;5216;54.602;18.356;2024-02-26T12:23:04;100910.44;;;15.79;55.07
10342;BME280;5216;54.602;18.356;2024-02-26T12:25:32;100917.00;;;15.69;54.12
10342;BME280;5216;54.602;18.356;2024-02-26T12:28:02;100902.38;;;15.46;54.12
10342;BME280;5216;54.602;18.356;2024-02-26T12:30:30;100913.25;;;15.37;54.91
10342;BME280;5216;54.602;18.356;2024-02-26T12:32:58;100912.09;;;15.31;54.39
10342;BME280;5216;54.602;18.356;2024-02-26T12:35:28;100913.03;;;15.05;54.43
10342;BME280;5216;54.602;18.356;2024-02-26T12:37:55;100913.28;;;14.69;54.71
10342;BME280;5216;54.602;18.356;2024-02-26T12:40:22;100923.56;;;14.39;55.36
10342;BME280;5216;54.602;18.356;2024-02-26T12:42:49;100920.09;;;14.12;55.85
10342;BME280;5216;54.602;18.356;2024-02-26T12:45:15;100923.31;;;13.89;56.34
10342;BME280;5216;54.602;18.356;2024-02-26T12:47:44;100922.69;;;13.68;56.74
10342;BME280;5216;54.602;18.356;2024-02-26T12:50:12;100922.13;;;13.47;57.31
10342;BME280;5216;54.602;18.356;2024-02-26T12:52:41;100934.31;;;13.32;57.75
10342;BME280;5216;54.602;18.356;2024-02-26T12:55:11;100946.78;;;13.15;57.83
10342;BME280;5216;54.602;18.356;2024-02-26T12:57:41;100948.22;;;13.00;58.14
10342;BME280;5216;54.602;18.356;2024-02-26T13:00:12;100942.59;;;12.84;58.59
10342;BME280;5216;54.602;18.356;2024-02-26T13:02:42;100952.72;;;12.71;58.89
10342;BME280;5216;54.602;18.356;2024-02-26T13:05:13;100958.38;;;12.59;58.90
10342;BME280;5216;54.602;18.356;2024-02-26T13:07:43;100961.78;;;12.51;59.52
10342;BME280;5216;54.602;18.356;2024-02-26T13:10:10;100958.81;;;12.45;60.04